sensor_id;sensor_type;location;lat;lon;timestamp;P1;durP1;ratioP1;P2;durP2;ratioP2
40284;SDS011;25997;50.214;19.354;2023-08-01T00:02:45;6.22;;;3.30;;
40284;SDS011;25997;50.214;19.354;2023-08-01T00:05:48;6.82;;;3.10;;
40284;SDS011;25997;50.214;19.354;2023-08-01T00:08:51;7.72;;;3.80;;
40284;SDS011;25997;50.214;19.354;2023-08-01T00:11:53;8.00;;;3.03;;
40284;SDS011;25997;50.214;19.354;2023-08-01T00:14:56;5.43;;;3.50;;
40284;SDS011;25997;50.214;19.354;2023-08-01T00:17:59;6.10;;;3.47;;
40284;SDS011;25997;50.214;19.354;2023-08-01T00:21:03;6.70;;;3.13;;
40284;SDS011;25997;50.214;19.354;2023-08-01T00:24:10;6.50;;;3.80;;
40284;SDS011;25997;50.214;19.354;2023-08-01T00:27:12;4.88;;;3.13;;
40284;SDS011;25997;50.214;19.354;2023-08-01T00:30:15;6.65;;;3.45;;
40284;SDS011;25997;50.214;19.354;2023-08-01T00:33:17;8.02;;;3.45;;
40284;SDS011;25997;50.214;19.354;2023-08-01T00:36:21;5.25;;;3.30;;
40284;SDS011;25997;50.214;19.354;2023-08-01T00:39:24;5.15;;;2.83;;
40284;SDS011;25997;50.214;19.354;2023-08-01T00:42:26;9.27;;;3.85;;
40284;SDS011;25997;50.214;19.354;2023-08-01T00:45:29;6.70;;;2.88;;
40284;SDS011;25997;50.214;19.354;2023-08-01T00:48:32;5.78;;;2.75;;
40284;SDS011;25997;50.214;19.354;2023-08-01T00:51:36;4.38;;;3.20;;
40284;SDS011;25997;50.214;19.354;2023-08-01T00:54:38;5.57;;;3.50;;
40284;SDS011;25997;50.214;19.354;2023-08-01T00:57:41;5.18;;;3.38;;
40284;SDS011;25997;50.214;19.354;2023-08-01T01:00:45;6.93;;;3.67;;
40284;SDS011;25997;50.214;19.354;2023-08-01T01:03:47;6.97;;;3.58;;
40284;SDS011;25997;50.214;19.354;2023-08-01T01:06:53;5.15;;;3.28;;
40284;SDS011;25997;50.214;19.354;2023-08-01T01:10:01;5.70;;;2.90;;
40284;SDS011;25997;50.214;19.354;2023-08-01T01:13:04;5.55;;;2.65;;
40284;SDS011;25997;50.214;19.354;2023-08-01T01:16:07;4.50;;;3.28;;
40284;SDS011;25997;50.214;19.354;2023-08-01T01:19:09;4.68;;;3.10;;
40284;SDS011;25997;50.214;19.354;2023-08-01T01:22:13;5.25;;;3.17;;
40284;SDS011;25997;50.214;19.354;2023-08-01T01:25:17;4.68;;;2.65;;
40284;SDS011;25997;50.214;19.354;2023-08-01T01:28:21;5.00;;;3.00;;
40284;SDS011;25997;50.214;19.354;2023-08-01T01:31:25;4.05;;;2.65;;
40284;SDS011;25997;50.214;19.354;2023-08-01T01:34:28;4.25;;;2.50;;
40284;SDS011;25997;50.214;19.354;2023-08-01T01:37:32;6.00;;;2.80;;
40284;SDS011;25997;50.214;19.354;2023-08-01T01:40:34;4.65;;;3.00;;
40284;SDS011;25997;50.214;19.354;2023-08-01T01:43:36;4.30;;;2.80;;
40284;SDS011;25997;50.214;19.354;2023-08-01T01:46:40;4.20;;;2.80;;
40284;SDS011;25997;50.214;19.354;2023-08-01T01:49:42;4.63;;;2.70;;
40284;SDS011;25997;50.214;19.354;2023-08-01T01:52:46;4.60;;;3.03;;
40284;SDS011;25997;50.214;19.354;2023-08-01T01:55:49;4.93;;;3.05;;
40284;SDS011;25997;50.214;19.354;2023-08-01T01:58:51;3.40;;;2.58;;
40284;SDS011;25997;50.214;19.354;2023-08-01T02:01:53;4.50;;;2.63;;
40284;SDS011;25997;50.214;19.354;2023-08-01T02:04:56;6.22;;;2.60;;
40284;SDS011;25997;50.214;19.354;2023-08-01T02:08:00;3.70;;;2.40;;
40284;SDS011;25997;50.214;19.354;2023-08-01T02:11:02;4.82;;;2.53;;
40284;SDS011;25997;50.214;19.354;2023-08-01T02:14:04;3.70;;;2.38;;
40284;SDS011;25997;50.214;19.354;2023-08-01T02:17:07;3.45;;;2.35;;
40284;SDS011;25997;50.214;19.354;2023-08-01T02:20:10;5.88;;;2.55;;
40284;SDS011;25997;50.214;19.354;2023-08-01T02:23:14;4.32;;;2.13;;
40284;SDS011;25997;50.214;19.354;2023-08-01T02:26:17;3.80;;;2.33;;
40284;SDS011;25997;50.214;19.354;2023-08-01T02:29:19;4.80;;;2.50;;
40284;SDS011;25997;50.214;19.354;2023-08-01T02:32:22;3.80;;;2.47;;
40284;SDS011;25997;50.214;19.354;2023-08-01T02:35:25;5.40;;;2.97;;
40284;SDS011;25997;50.214;19.354;2023-08-01T02:38:30;4.43;;;2.55;;
40284;SDS011;25997;50.214;19.354;2023-08-01T02:41:32;4.43;;;2.50;;
40284;SDS011;25997;50.214;19.354;2023-08-01T02:44:35;5.20;;;2.67;;
40284;SDS011;25997;50.214;19.354;2023-08-01T02:47:37;4.03;;;2.60;;
40284;SDS011;25997;50.214;19.354;2023-08-01T02:50:40;7.38;;;2.60;;
40284;SDS011;25997;50.214;19.354;2023-08-01T02:53:43;2.78;;;2.05;;
40284;SDS011;25997;50.214;19.354;2023-08-01T02:56:46;4.35;;;2.80;;
40284;SDS011;25997;50.214;19.354;2023-08-01T02:59:48;5.13;;;2.72;;
40284;SDS011;25997;50.214;19.354;2023-08-01T03:02:51;5.20;;;2.47;;
40284;SDS011;25997;50.214;19.354;2023-08-01T03:05:53;4.35;;;2.50;;
40284;SDS011;25997;50.214;19.354;2023-08-01T03:08:57;4.65;;;2.58;;
40284;SDS011;25997;50.214;19.354;2023-08-01T03:11:59;3.88;;;2.60;;
40284;SDS011;25997;50.214;19.354;2023-08-01T03:15:02;6.18;;;2.75;;
40284;SDS011;25997;50.214;19.354;2023-08-01T03:18:04;4.40;;;2.88;;
40284;SDS011;25997;50.214;19.354;2023-08-01T03:21:08;7.10;;;2.72;;
40284;SDS011;25997;50.214;19.354;2023-08-01T03:24:12;4.70;;;3.03;;
40284;SDS011;25997;50.214;19.354;2023-08-01T03:27:15;4.07;;;2.80;;
40284;SDS011;25997;50.214;19.354;2023-08-01T03:30:17;4.68;;;2.45;;
40284;SDS011;25997;50.214;19.354;2023-08-01T03:33:21;4.88;;;3.00;;
40284;SDS011;25997;50.214;19.354;2023-08-01T03:36:23;3.50;;;2.22;;
40284;SDS011;25997;50.214;19.354;2023-08-01T03:39:27;3.85;;;2.40;;
40284;SDS011;25997;50.214;19.354;2023-08-01T03:42:30;3.95;;;2.88;;
40284;SDS011;25997;50.214;19.354;2023-08-01T03:45:32;6.00;;;2.78;;
40284;SDS011;25997;50.214;19.354;2023-08-01T03:48:35;4.47;;;2.63;;
40284;SDS011;25997;50.214;19.354;2023-08-01T03:51:38;9.02;;;2.88;;
40284;SDS011;25997;50.214;19.354;2023-08-01T03:54:41;5.40;;;3.33;;
40284;SDS011;25997;50.214;19.354;2023-08-01T03:57:44;3.95;;;2.83;;
40284;SDS011;25997;50.214;19.354;2023-08-01T04:00:46;5.30;;;2.63;;
40284;SDS011;25997;50.214;19.354;2023-08-01T04:03:49;4.05;;;2.38;;
40284;SDS011;25997;50.214;19.354;2023-08-01T04:06:51;4.28;;;2.70;;
40284;SDS011;25997;50.214;19.354;2023-08-01T04:09:55;4.43;;;2.30;;
40284;SDS011;25997;50.214;19.354;2023-08-01T04:12:57;4.22;;;2.38;;
40284;SDS011;25997;50.214;19.354;2023-08-01T04:16:00;4.68;;;2.60;;
40284;SDS011;25997;50.214;19.354;2023-08-01T04:19:02;3.33;;;2.60;;
40284;SDS011;25997;50.214;19.354;2023-08-01T04:22:05;4.90;;;2.50;;
40284;SDS011;25997;50.214;19.354;2023-08-01T04:25:09;4.85;;;2.42;;
40284;SDS011;25997;50.214;19.354;2023-08-01T04:28:11;4.57;;;2.35;;
40284;SDS011;25997;50.214;19.354;2023-08-01T04:31:14;8.27;;;3.05;;
40284;SDS011;25997;50.214;19.354;2023-08-01T04:34:16;3.42;;;2.53;;
40284;SDS011;25997;50.214;19.354;2023-08-01T04:37:19;4.90;;;2.67;;
40284;SDS011;25997;50.214;19.354;2023-08-01T04:40:25;4.18;;;2.85;;
40284;SDS011;25997;50.214;19.354;2023-08-01T04:43:27;4.38;;;2.53;;
40284;SDS011;25997;50.214;19.354;2023-08-01T04:46:29;3.55;;;2.65;;
40284;SDS011;25997;50.214;19.354;2023-08-01T04:49:32;4.63;;;3.03;;
40284;SDS011;25997;50.214;19.354;2023-08-01T04:52:34;5.68;;;2.72;;
40284;SDS011;25997;50.214;19.354;2023-08-01T04:55:38;5.85;;;2.33;;
40284;SDS011;25997;50.214;19.354;2023-08-01T04:58:41;3.80;;;2.63;;
40284;SDS011;25997;50.214;19.354;2023-08-01T05:01:44;3.85;;;2.60;;
40284;SDS011;25997;50.214;19.354;2023-08-01T05:04:46;3.47;;;2.53;;
40284;SDS011;25997;50.214;19.354;2023-08-01T05:07:49;4.97;;;2.97;;
40284;SDS011;25997;50.214;19.354;2023-08-01T05:10:52;5.45;;;2.25;;
40284;SDS011;25997;50.214;19.354;2023-08-01T05:13:55;4.93;;;2.78;;
40284;SDS011;25997;50.214;19.354;2023-08-01T05:16:57;5.82;;;2.95;;
40284;SDS011;25997;50.214;19.354;2023-08-01T05:19:59;4.40;;;2.83;;
40284;SDS011;25997;50.214;19.354;2023-08-01T05:23:02;4.00;;;2.70;;
40284;SDS011;25997;50.214;19.354;2023-08-01T05:26:05;6.20;;;3.10;;
40284;SDS011;25997;50.214;19.354;2023-08-01T05:29:08;4.25;;;2.67;;
40284;SDS011;25997;50.214;19.354;2023-08-01T05:32:10;3.58;;;2.47;;
40284;SDS011;25997;50.214;19.354;2023-08-01T05:35:12;6.95;;;2.55;;
40284;SDS011;25997;50.214;19.354;2023-08-01T05:38:15;3.97;;;2.50;;
40284;SDS011;25997;50.214;19.354;2023-08-01T05:41:19;3.78;;;2.38;;
40284;SDS011;25997;50.214;19.354;2023-08-01T05:44:22;5.13;;;2.65;;
40284;SDS011;25997;50.214;19.354;2023-08-01T05:47:24;6.57;;;2.80;;
40284;SDS011;25997;50.214;19.354;2023-08-01T05:50:26;4.10;;;2.70;;
40284;SDS011;25997;50.214;19.354;2023-08-01T05:53:29;4.38;;;2.70;;
40284;SDS011;25997;50.214;19.354;2023-08-01T05:56:33;4.28;;;2.72;;
40284;SDS011;25997;50.214;19.354;2023-08-01T05:59:35;4.95;;;2.67;;
40284;SDS011;25997;50.214;19.354;2023-08-01T06:02:38;3.45;;;2.50;;
40284;SDS011;25997;50.214;19.354;2023-08-01T06:05:40;4.45;;;2.42;;
40284;SDS011;25997;50.214;19.354;2023-08-01T06:08:43;4.88;;;3.03;;
40284;SDS011;25997;50.214;19.354;2023-08-01T06:11:47;5.28;;;3.10;;
40284;SDS011;25997;50.214;19.354;2023-08-01T06:14:49;4.10;;;2.90;;
40284;SDS011;25997;50.214;19.354;2023-08-01T06:17:52;4.65;;;3.03;;
40284;SDS011;25997;50.214;19.354;2023-08-01T06:20:54;6.88;;;2.90;;
40284;SDS011;25997;50.214;19.354;2023-08-01T06:23:56;4.00;;;2.40;;
40284;SDS011;25997;50.214;19.354;2023-08-01T06:27:00;4.00;;;2.63;;
40284;SDS011;25997;50.214;19.354;2023-08-01T06:30:03;5.32;;;2.75;;
40284;SDS011;25997;50.214;19.354;2023-08-01T06:33:05;4.85;;;2.70;;
40284;SDS011;25997;50.214;19.354;2023-08-01T06:36:08;4.15;;;2.33;;
40284;SDS011;25997;50.214;19.354;2023-08-01T06:39:10;4.95;;;3.00;;
40284;SDS011;25997;50.214;19.354;2023-08-01T06:42:14;4.55;;;2.58;;
40284;SDS011;25997;50.214;19.354;2023-08-01T06:45:17;7.78;;;3.42;;
40284;SDS011;25997;50.214;19.354;2023-08-01T06:48:19;5.25;;;2.85;;
40284;SDS011;25997;50.214;19.354;2023-08-01T06:51:22;4.78;;;2.70;;
40284;SDS011;25997;50.214;19.354;2023-08-01T06:54:24;5.63;;;3.00;;
40284;SDS011;25997;50.214;19.354;2023-08-01T06:57:28;7.72;;;3.47;;
40284;SDS011;25997;50.214;19.354;2023-08-01T07:00:31;6.07;;;3.70;;
40284;SDS011;25997;50.214;19.354;2023-08-01T07:03:33;6.78;;;5.40;;
40284;SDS011;25997;50.214;19.354;2023-08-01T07:06:36;6.18;;;4.70;;
40284;SDS011;25997;50.214;19.354;2023-08-01T07:09:38;10.07;;;5.63;;
40284;SDS011;25997;50.214;19.354;2023-08-01T07:12:42;9.40;;;5.57;;
40284;SDS011;25997;50.214;19.354;2023-08-01T07:15:44;8.40;;;4.78;;
40284;SDS011;25997;50.214;19.354;2023-08-01T07:18:47;4.13;;;2.85;;
40284;SDS011;25997;50.214;19.354;2023-08-01T07:21:51;5.55;;;3.10;;
40284;SDS011;25997;50.214;19.354;2023-08-01T07:24:53;4.53;;;3.30;;
40284;SDS011;25997;50.214;19.354;2023-08-01T07:27:57;4.68;;;3.33;;
40284;SDS011;25997;50.214;19.354;2023-08-01T07:31:00;4.78;;;3.60;;
40284;SDS011;25997;50.214;19.354;2023-08-01T07:34:03;7.35;;;3.53;;
40284;SDS011;25997;50.214;19.354;2023-08-01T07:37:06;6.97;;;3.38;;
40284;SDS011;25997;50.214;19.354;2023-08-01T07:40:09;6.70;;;3.17;;
40284;SDS011;25997;50.214;19.354;2023-08-01T07:43:13;4.88;;;2.85;;
40284;SDS011;25997;50.214;19.354;2023-08-01T07:46:16;4.57;;;3.20;;
40284;SDS011;25997;50.214;19.354;2023-08-01T07:49:18;3.47;;;2.72;;
40284;SDS011;25997;50.214;19.354;2023-08-01T07:52:20;3.90;;;2.92;;
40284;SDS011;25997;50.214;19.354;2023-08-01T07:55:23;4.43;;;3.08;;
40284;SDS011;25997;50.214;19.354;2023-08-01T07:58:27;6.10;;;3.58;;
40284;SDS011;25997;50.214;19.354;2023-08-01T08:01:29;5.25;;;3.50;;
40284;SDS011;25997;50.214;19.354;2023-08-01T08:04:32;4.78;;;3.63;;
40284;SDS011;25997;50.214;19.354;2023-08-01T08:07:34;5.78;;;4.53;;
40284;SDS011;25997;50.214;19.354;2023-08-01T08:10:38;3.70;;;3.15;;
40284;SDS011;25997;50.214;19.354;2023-08-01T08:13:42;5.72;;;3.80;;
40284;SDS011;25997;50.214;19.354;2023-08-01T08:16:44;5.85;;;4.00;;
40284;SDS011;25997;50.214;19.354;2023-08-01T08:19:46;6.97;;;3.83;;
40284;SDS011;25997;50.214;19.354;2023-08-01T08:22:49;4.53;;;3.28;;
40284;SDS011;25997;50.214;19.354;2023-08-01T08:25:51;4.13;;;3.20;;
40284;SDS011;25997;50.214;19.354;2023-08-01T08:28:56;4.75;;;3.40;;
40284;SDS011;25997;50.214;19.354;2023-08-01T08:31:59;5.40;;;3.47;;
40284;SDS011;25997;50.214;19.354;2023-08-01T08:35:02;6.95;;;3.63;;
40284;SDS011;25997;50.214;19.354;2023-08-01T08:38:05;8.38;;;4.57;;
40284;SDS011;25997;50.214;19.354;2023-08-01T08:41:08;5.03;;;3.65;;
40284;SDS011;25997;50.214;19.354;2023-08-01T08:44:14;21.83;;;9.38;;
40284;SDS011;25997;50.214;19.354;2023-08-01T08:47:17;18.40;;;10.13;;
40284;SDS011;25997;50.214;19.354;2023-08-01T08:50:23;17.30;;;15.48;;
40284;SDS011;25997;50.214;19.354;2023-08-01T08:53:26;13.77;;;11.13;;
40284;SDS011;25997;50.214;19.354;2023-08-01T08:56:29;7.70;;;5.85;;
40284;SDS011;25997;50.214;19.354;2023-08-01T08:59:33;7.25;;;4.32;;
40284;SDS011;25997;50.214;19.354;2023-08-01T09:02:36;5.47;;;3.78;;
40284;SDS011;25997;50.214;19.354;2023-08-01T09:05:40;5.55;;;3.72;;
40284;SDS011;25997;50.214;19.354;2023-08-01T09:08:55;7.32;;;4.43;;
40284;SDS011;25997;50.214;19.354;2023-08-01T09:12:01;5.78;;;4.20;;
40284;SDS011;25997;50.214;19.354;2023-08-01T09:15:06;7.18;;;3.55;;
40284;SDS011;25997;50.214;19.354;2023-08-01T09:18:09;5.53;;;3.75;;
40284;SDS011;25997;50.214;19.354;2023-08-01T09:21:12;5.70;;;3.55;;
40284;SDS011;25997;50.214;19.354;2023-08-01T09:24:15;4.25;;;3.85;;
40284;SDS011;25997;50.214;19.354;2023-08-01T09:27:20;5.43;;;4.18;;
40284;SDS011;25997;50.214;19.354;2023-08-01T09:30:24;5.63;;;3.60;;
40284;SDS011;25997;50.214;19.354;2023-08-01T09:33:36;5.28;;;3.70;;
40284;SDS011;25997;50.214;19.354;2023-08-01T09:36:40;5.03;;;3.85;;
40284;SDS011;25997;50.214;19.354;2023-08-01T09:39:42;7.32;;;4.30;;
40284;SDS011;25997;50.214;19.354;2023-08-01T09:42:47;5.82;;;3.92;;
40284;SDS011;25997;50.214;19.354;2023-08-01T09:45:51;7.47;;;5.90;;
40284;SDS011;25997;50.214;19.354;2023-08-01T09:48:54;6.07;;;4.07;;
40284;SDS011;25997;50.214;19.354;2023-08-01T09:51:57;5.53;;;3.80;;
40284;SDS011;25997;50.214;19.354;2023-08-01T09:55:00;5.47;;;4.25;;
40284;SDS011;25997;50.214;19.354;2023-08-01T09:58:03;5.25;;;4.40;;
40284;SDS011;25997;50.214;19.354;2023-08-01T10:01:08;6.22;;;4.25;;
40284;SDS011;25997;50.214;19.354;2023-08-01T10:04:10;6.45;;;3.72;;
40284;SDS011;25997;50.214;19.354;2023-08-01T10:07:14;4.55;;;3.63;;
40284;SDS011;25997;50.214;19.354;2023-08-01T10:10:23;7.72;;;3.40;;
40284;SDS011;25997;50.214;19.354;2023-08-01T10:13:25;6.60;;;3.47;;
40284;SDS011;25997;50.214;19.354;2023-08-01T10:16:31;6.40;;;3.45;;
40284;SDS011;25997;50.214;19.354;2023-08-01T10:19:36;4.32;;;3.40;;
40284;SDS011;25997;50.214;19.354;2023-08-01T10:22:39;5.85;;;3.85;;
40284;SDS011;25997;50.214;19.354;2023-08-01T10:25:43;4.57;;;3.50;;
40284;SDS011;25997;50.214;19.354;2023-08-01T10:28:49;4.68;;;3.08;;
40284;SDS011;25997;50.214;19.354;2023-08-01T10:31:55;7.10;;;3.65;;
40284;SDS011;25997;50.214;19.354;2023-08-01T10:34:57;4.78;;;3.40;;
40284;SDS011;25997;50.214;19.354;2023-08-01T10:38:06;5.90;;;3.42;;
40284;SDS011;25997;50.214;19.354;2023-08-01T10:41:17;3.97;;;3.13;;
40284;SDS011;25997;50.214;19.354;2023-08-01T10:44:20;5.47;;;3.83;;
40284;SDS011;25997;50.214;19.354;2023-08-01T10:47:27;4.60;;;3.35;;
40284;SDS011;25997;50.214;19.354;2023-08-01T10:50:31;4.28;;;3.10;;
40284;SDS011;25997;50.214;19.354;2023-08-01T10:53:37;4.35;;;3.03;;
40284;SDS011;25997;50.214;19.354;2023-08-01T10:56:44;3.92;;;3.00;;
40284;SDS011;25997;50.214;19.354;2023-08-01T10:59:47;7.30;;;3.70;;
40284;SDS011;25997;50.214;19.354;2023-08-01T11:02:52;6.00;;;3.58;;
40284;SDS011;25997;50.214;19.354;2023-08-01T11:05:57;4.15;;;3.08;;
40284;SDS011;25997;50.214;19.354;2023-08-01T11:08:59;3.78;;;3.03;;
40284;SDS011;25997;50.214;19.354;2023-08-01T11:12:02;6.07;;;4.10;;
40284;SDS011;25997;50.214;19.354;2023-08-01T11:15:05;6.85;;;4.53;;
40284;SDS011;25997;50.214;19.354;2023-08-01T11:18:11;8.55;;;6.97;;
40284;SDS011;25997;50.214;19.354;2023-08-01T11:21:23;12.68;;;10.02;;
40284;SDS011;25997;50.214;19.354;2023-08-01T11:24:28;9.05;;;8.15;;
40284;SDS011;25997;50.214;19.354;2023-08-01T11:27:30;6.15;;;4.85;;
40284;SDS011;25997;50.214;19.354;2023-08-01T11:30:33;8.70;;;5.45;;
40284;SDS011;25997;50.214;19.354;2023-08-01T11:33:37;8.88;;;6.38;;
40284;SDS011;25997;50.214;19.354;2023-08-01T11:36:39;14.98;;;12.98;;
40284;SDS011;25997;50.214;19.354;2023-08-01T11:39:42;10.32;;;9.20;;
40284;SDS011;25997;50.214;19.354;2023-08-01T11:42:48;8.45;;;7.30;;
40284;SDS011;25997;50.214;19.354;2023-08-01T11:45:52;7.75;;;6.97;;
40284;SDS011;25997;50.214;19.354;2023-08-01T11:48:57;8.82;;;6.05;;
40284;SDS011;25997;50.214;19.354;2023-08-01T11:52:00;7.82;;;6.63;;
40284;SDS011;25997;50.214;19.354;2023-08-01T11:55:03;7.13;;;5.43;;
40284;SDS011;25997;50.214;19.354;2023-08-01T11:58:06;6.47;;;4.68;;
40284;SDS011;25997;50.214;19.354;2023-08-01T12:01:09;6.15;;;4.88;;
40284;SDS011;25997;50.214;19.354;2023-08-01T12:04:24;7.45;;;5.72;;
40284;SDS011;25997;50.214;19.354;2023-08-01T12:07:27;5.47;;;4.22;;
40284;SDS011;25997;50.214;19.354;2023-08-01T12:10:36;5.90;;;5.07;;
40284;SDS011;25997;50.214;19.354;2023-08-01T12:13:40;5.65;;;4.40;;
40284;SDS011;25997;50.214;19.354;2023-08-01T12:16:43;4.95;;;4.00;;
40284;SDS011;25997;50.214;19.354;2023-08-01T12:19:49;4.28;;;3.65;;
40284;SDS011;25997;50.214;19.354;2023-08-01T12:22:52;6.07;;;4.38;;
40284;SDS011;25997;50.214;19.354;2023-08-01T12:25:54;6.07;;;3.63;;
40284;SDS011;25997;50.214;19.354;2023-08-01T12:28:57;5.43;;;4.07;;
40284;SDS011;25997;50.214;19.354;2023-08-01T12:31:59;6.63;;;4.15;;
40284;SDS011;25997;50.214;19.354;2023-08-01T12:35:06;4.57;;;3.85;;
40284;SDS011;25997;50.214;19.354;2023-08-01T12:38:09;4.45;;;3.47;;
40284;SDS011;25997;50.214;19.354;2023-08-01T12:41:11;6.90;;;4.25;;
40284;SDS011;25997;50.214;19.354;2023-08-01T12:44:14;4.22;;;3.83;;
40284;SDS011;25997;50.214;19.354;2023-08-01T12:47:18;4.63;;;3.40;;
40284;SDS011;25997;50.214;19.354;2023-08-01T12:50:26;4.75;;;3.45;;
40284;SDS011;25997;50.214;19.354;2023-08-01T12:53:36;3.60;;;3.03;;
40284;SDS011;25997;50.214;19.354;2023-08-01T12:56:43;4.68;;;3.65;;
40284;SDS011;25997;50.214;19.354;2023-08-01T12:59:46;5.22;;;3.60;;
40284;SDS011;25997;50.214;19.354;2023-08-01T13:02:49;5.68;;;3.38;;
40284;SDS011;25997;50.214;19.354;2023-08-01T13:05:53;4.40;;;3.25;;
40284;SDS011;25997;50.214;19.354;2023-08-01T13:08:57;5.20;;;3.70;;
40284;SDS011;25997;50.214;19.354;2023-08-01T13:12:00;14.15;;;12.52;;
40284;SDS011;25997;50.214;19.354;2023-08-01T13:15:04;5.53;;;4.70;;
40284;SDS011;25997;50.214;19.354;2023-08-01T13:18:07;3.75;;;3.20;;
40284;SDS011;25997;50.214;19.354;2023-08-01T13:21:12;5.15;;;3.70;;
40284;SDS011;25997;50.214;19.354;2023-08-01T13:24:15;5.10;;;3.47;;
40284;SDS011;25997;50.214;19.354;2023-08-01T13:27:17;4.05;;;3.45;;
40284;SDS011;25997;50.214;19.354;2023-08-01T13:30:20;6.25;;;3.22;;
40284;SDS011;25997;50.214;19.354;2023-08-01T13:33:22;3.97;;;2.75;;
40284;SDS011;25997;50.214;19.354;2023-08-01T13:36:26;4.50;;;2.65;;
40284;SDS011;25997;50.214;19.354;2023-08-01T13:39:29;4.00;;;3.17;;
40284;SDS011;25997;50.214;19.354;2023-08-01T13:42:31;4.47;;;2.85;;
40284;SDS011;25997;50.214;19.354;2023-08-01T13:45:34;5.38;;;3.10;;
40284;SDS011;25997;50.214;19.354;2023-08-01T13:48:36;5.25;;;3.17;;
40284;SDS011;25997;50.214;19.354;2023-08-01T13:51:40;4.57;;;3.25;;
40284;SDS011;25997;50.214;19.354;2023-08-01T13:54:43;7.63;;;3.38;;
40284;SDS011;25997;50.214;19.354;2023-08-01T13:57:45;4.57;;;2.95;;
40284;SDS011;25997;50.214;19.354;2023-08-01T14:00:48;4.07;;;3.10;;
40284;SDS011;25997;50.214;19.354;2023-08-01T14:03:50;4.18;;;2.88;;
40284;SDS011;25997;50.214;19.354;2023-08-01T14:06:54;4.03;;;3.13;;
40284;SDS011;25997;50.214;19.354;2023-08-01T14:09:57;3.55;;;2.65;;
40284;SDS011;25997;50.214;19.354;2023-08-01T14:12:59;3.97;;;3.00;;
40284;SDS011;25997;50.214;19.354;2023-08-01T14:16:01;4.65;;;3.17;;
40284;SDS011;25997;50.214;19.354;2023-08-01T14:19:04;3.88;;;2.58;;
40284;SDS011;25997;50.214;19.354;2023-08-01T14:22:08;4.38;;;3.60;;
40284;SDS011;25997;50.214;19.354;2023-08-01T14:25:11;3.15;;;2.47;;
40284;SDS011;25997;50.214;19.354;2023-08-01T14:28:13;3.85;;;3.05;;
40284;SDS011;25997;50.214;19.354;2023-08-01T14:31:16;4.00;;;2.60;;
40284;SDS011;25997;50.214;19.354;2023-08-01T14:34:19;5.75;;;2.47;;
40284;SDS011;25997;50.214;19.354;2023-08-01T14:37:22;4.03;;;3.05;;
40284;SDS011;25997;50.214;19.354;2023-08-01T14:40:26;4.63;;;3.38;;
40284;SDS011;25997;50.214;19.354;2023-08-01T14:43:29;3.92;;;2.65;;
40284;SDS011;25997;50.214;19.354;2023-08-01T14:46:31;3.70;;;2.50;;
40284;SDS011;25997;50.214;19.354;2023-08-01T14:49:33;5.28;;;4.15;;
40284;SDS011;25997;50.214;19.354;2023-08-01T14:52:38;6.35;;;4.57;;
40284;SDS011;25997;50.214;19.354;2023-08-01T14:55:41;5.13;;;3.45;;
40284;SDS011;25997;50.214;19.354;2023-08-01T14:58:43;5.22;;;3.67;;
40284;SDS011;25997;50.214;19.354;2023-08-01T15:01:46;4.45;;;3.05;;
40284;SDS011;25997;50.214;19.354;2023-08-01T15:04:50;4.97;;;4.03;;
40284;SDS011;25997;50.214;19.354;2023-08-01T15:07:55;4.68;;;3.38;;
40284;SDS011;25997;50.214;19.354;2023-08-01T15:10:57;8.00;;;3.80;;
40284;SDS011;25997;50.214;19.354;2023-08-01T15:14:03;5.40;;;3.47;;
40284;SDS011;25997;50.214;19.354;2023-08-01T15:17:06;3.92;;;2.90;;
40284;SDS011;25997;50.214;19.354;2023-08-01T15:20:10;3.83;;;2.80;;
40284;SDS011;25997;50.214;19.354;2023-08-01T15:23:14;3.33;;;2.65;;
40284;SDS011;25997;50.214;19.354;2023-08-01T15:26:16;5.32;;;3.05;;
40284;SDS011;25997;50.214;19.354;2023-08-01T15:29:19;3.33;;;2.45;;
40284;SDS011;25997;50.214;19.354;2023-08-01T15:32:21;3.17;;;2.20;;
40284;SDS011;25997;50.214;19.354;2023-08-01T15:35:27;4.32;;;2.85;;
40284;SDS011;25997;50.214;19.354;2023-08-01T15:38:32;4.43;;;2.85;;
40284;SDS011;25997;50.214;19.354;2023-08-01T15:41:36;5.32;;;3.05;;
40284;SDS011;25997;50.214;19.354;2023-08-01T15:44:38;5.00;;;3.42;;
40284;SDS011;25997;50.214;19.354;2023-08-01T15:47:40;5.80;;;3.03;;
40284;SDS011;25997;50.214;19.354;2023-08-01T15:50:43;5.00;;;2.55;;
40284;SDS011;25997;50.214;19.354;2023-08-01T15:53:48;4.63;;;2.97;;
40284;SDS011;25997;50.214;19.354;2023-08-01T15:56:51;3.28;;;2.28;;
40284;SDS011;25997;50.214;19.354;2023-08-01T15:59:54;3.67;;;2.70;;
40284;SDS011;25997;50.214;19.354;2023-08-01T16:02:56;3.55;;;2.83;;
40284;SDS011;25997;50.214;19.354;2023-08-01T16:05:59;4.60;;;3.17;;
40284;SDS011;25997;50.214;19.354;2023-08-01T16:09:02;7.28;;;2.72;;
40284;SDS011;25997;50.214;19.354;2023-08-01T16:12:05;3.60;;;2.70;;
40284;SDS011;25997;50.214;19.354;2023-08-01T16:15:08;4.13;;;3.25;;
40284;SDS011;25997;50.214;19.354;2023-08-01T16:18:11;4.88;;;2.90;;
40284;SDS011;25997;50.214;19.354;2023-08-01T16:21:14;4.00;;;3.30;;
40284;SDS011;25997;50.214;19.354;2023-08-01T16:24:18;3.88;;;3.08;;
40284;SDS011;25997;50.214;19.354;2023-08-01T16:27:20;6.22;;;2.83;;
40284;SDS011;25997;50.214;19.354;2023-08-01T16:30:23;5.68;;;3.25;;
40284;SDS011;25997;50.214;19.354;2023-08-01T16:33:25;4.07;;;3.05;;
40284;SDS011;25997;50.214;19.354;2023-08-01T16:36:28;5.13;;;3.45;;
40284;SDS011;25997;50.214;19.354;2023-08-01T16:39:32;3.38;;;2.45;;
40284;SDS011;25997;50.214;19.354;2023-08-01T16:42:34;5.40;;;3.33;;
40284;SDS011;25997;50.214;19.354;2023-08-01T16:45:37;4.00;;;2.83;;
40284;SDS011;25997;50.214;19.354;2023-08-01T16:48:40;4.60;;;2.60;;
40284;SDS011;25997;50.214;19.354;2023-08-01T16:51:42;3.65;;;2.58;;
40284;SDS011;25997;50.214;19.354;2023-08-01T16:54:46;3.70;;;2.55;;
40284;SDS011;25997;50.214;19.354;2023-08-01T16:57:48;3.58;;;2.55;;
40284;SDS011;25997;50.214;19.354;2023-08-01T17:00:51;3.55;;;2.28;;
40284;SDS011;25997;50.214;19.354;2023-08-01T17:03:53;5.35;;;2.90;;
40284;SDS011;25997;50.214;19.354;2023-08-01T17:06:56;7.35;;;2.53;;
40284;SDS011;25997;50.214;19.354;2023-08-01T17:10:03;5.07;;;2.80;;
40284;SDS011;25997;50.214;19.354;2023-08-01T17:13:06;3.83;;;3.00;;
40284;SDS011;25997;50.214;19.354;2023-08-01T17:16:09;3.70;;;2.47;;
40284;SDS011;25997;50.214;19.354;2023-08-01T17:19:11;3.88;;;3.08;;
40284;SDS011;25997;50.214;19.354;2023-08-01T17:22:14;3.85;;;2.80;;
40284;SDS011;25997;50.214;19.354;2023-08-01T17:25:19;3.60;;;2.60;;
40284;SDS011;25997;50.214;19.354;2023-08-01T17:28:21;4.30;;;3.30;;
40284;SDS011;25997;50.214;19.354;2023-08-01T17:31:24;4.70;;;2.85;;
40284;SDS011;25997;50.214;19.354;2023-08-01T17:34:27;5.75;;;3.83;;
40284;SDS011;25997;50.214;19.354;2023-08-01T17:37:30;5.28;;;3.85;;
40284;SDS011;25997;50.214;19.354;2023-08-01T17:40:34;4.80;;;3.13;;
40284;SDS011;25997;50.214;19.354;2023-08-01T17:43:37;4.07;;;2.88;;
40284;SDS011;25997;50.214;19.354;2023-08-01T17:46:39;4.82;;;3.20;;
40284;SDS011;25997;50.214;19.354;2023-08-01T17:49:41;4.60;;;3.03;;
40284;SDS011;25997;50.214;19.354;2023-08-01T17:52:45;4.05;;;2.90;;
40284;SDS011;25997;50.214;19.354;2023-08-01T17:55:49;4.05;;;3.10;;
40284;SDS011;25997;50.214;19.354;2023-08-01T17:58:52;7.45;;;3.17;;
40284;SDS011;25997;50.214;19.354;2023-08-01T18:01:54;5.43;;;2.25;;
40284;SDS011;25997;50.214;19.354;2023-08-01T18:04:57;4.95;;;3.40;;
40284;SDS011;25997;50.214;19.354;2023-08-01T18:07:59;4.15;;;3.15;;